sensor_id;sensor_type;location;lat;lon;timestamp;pressure;altitude;pressure_sealevel;temperature;humidity
6020;BME280;3038;51.122;6.840;2023-04-06T00:00:48;101518.88;;;3.12;62.98
6020;BME280;3038;51.122;6.840;2023-04-06T00:03:13;101509.31;;;3.11;63.30
6020;BME280;3038;51.122;6.840;2023-04-06T00:05:39;101500.88;;;3.05;64.04
6020;BME280;3038;51.122;6.840;2023-04-06T00:08:05;101508.19;;;3.00;64.76
6020;BME280;3038;51.122;6.840;2023-04-06T00:10:33;101510.41;;;2.92;65.01
6020;BME280;3038;51.122;6.840;2023-04-06T00:12:59;101500.09;;;2.89;64.51
6020;BME280;3038;51.122;6.840;2023-04-06T00:15:25;101508.78;;;2.90;65.02
6020;BME280;3038;51.122;6.840;2023-04-06T00:17:51;101504.31;;;2.92;65.08
6020;BME280;3038;51.122;6.840;2023-04-06T00:20:16;101501.59;;;2.93;64.80
6020;BME280;3038;51.122;6.840;2023-04-06T00:22:43;101492.63;;;2.97;66.35
6020;BME280;3038;51.122;6.840;2023-04-06T00:25:09;101493.47;;;2.98;64.82
6020;BME280;3038;51.122;6.840;2023-04-06T00:27:35;101488.09;;;2.99;65.79
6020;BME280;3038;51.122;6.840;2023-04-06T00:30:07;101494.97;;;3.02;66.01
6020;BME280;3038;51.122;6.840;2023-04-06T00:32:33;101487.75;;;3.05;66.55
6020;BME280;3038;51.122;6.840;2023-04-06T00:35:05;101492.06;;;3.06;66.54
6020;BME280;3038;51.122;6.840;2023-04-06T00:37:31;101490.56;;;3.02;65.78
6020;BME280;3038;51.122;6.840;2023-04-06T00:39:57;101485.31;;;3.02;66.16
6020;BME280;3038;51.122;6.840;2023-04-06T00:42:23;101483.63;;;3.01;65.33
6020;BME280;3038;51.122;6.840;2023-04-06T00:44:57;101483.91;;;2.97;67.37
6020;BME280;3038;51.122;6.840;2023-04-06T00:47:26;101477.88;;;2.95;66.89
6020;BME280;3038;51.122;6.840;2023-04-06T00:49:53;101478.94;;;2.92;66.61
6020;BME280;3038;51.122;6.840;2023-04-06T00:52:19;101474.91;;;2.87;66.24
6020;BME280;3038;51.122;6.840;2023-04-06T00:54:45;101473.56;;;2.79;66.16
6020;BME280;3038;51.122;6.840;2023-04-06T00:57:12;101473.09;;;2.73;66.28
6020;BME280;3038;51.122;6.840;2023-04-06T00:59:38;101474.97;;;2.71;66.67
6020;BME280;3038;51.122;6.840;2023-04-06T01:02:06;101468.78;;;2.72;66.82
6020;BME280;3038;51.122;6.840;2023-04-06T01:04:32;101469.75;;;2.71;67.84
6020;BME280;3038;51.122;6.840;2023-04-06T01:06:58;101471.41;;;2.72;67.65
6020;BME280;3038;51.122;6.840;2023-04-06T01:09:23;101462.50;;;2.74;68.28
6020;BME280;3038;51.122;6.840;2023-04-06T01:11:49;101450.25;;;2.75;67.94
6020;BME280;3038;51.122;6.840;2023-04-06T01:14:14;101451.75;;;2.79;67.49
6020;BME280;3038;51.122;6.840;2023-04-06T01:16:41;101443.97;;;2.77;67.60
6020;BME280;3038;51.122;6.840;2023-04-06T01:19:08;101445.75;;;2.77;67.58
6020;BME280;3038;51.122;6.840;2023-04-06T01:21:34;101439.75;;;2.75;67.63
6020;BME280;3038;51.122;6.840;2023-04-06T01:24:00;101443.31;;;2.74;68.54
6020;BME280;3038;51.122;6.840;2023-04-06T01:26:25;101438.28;;;2.71;67.90
6020;BME280;3038;51.122;6.840;2023-04-06T01:28:51;101441.81;;;2.70;68.12
6020;BME280;3038;51.122;6.840;2023-04-06T01:31:17;101441.81;;;2.70;67.14
6020;BME280;3038;51.122;6.840;2023-04-06T01:33:42;101436.66;;;2.68;67.42
6020;BME280;3038;51.122;6.840;2023-04-06T01:36:07;101433.31;;;2.66;67.71
6020;BME280;3038;51.122;6.840;2023-04-06T01:38:33;101436.94;;;2.64;67.70
6020;BME280;3038;51.122;6.840;2023-04-06T01:40:58;101431.69;;;2.64;66.83
6020;BME280;3038;51.122;6.840;2023-04-06T01:43:26;101430.94;;;2.62;67.23
6020;BME280;3038;51.122;6.840;2023-04-06T01:45:51;101433.19;;;2.53;67.59
6020;BME280;3038;51.122;6.840;2023-04-06T01:48:17;101422.13;;;2.48;68.12
6020;BME280;3038;51.122;6.840;2023-04-06T01:50:42;101432.97;;;2.42;68.18
6020;BME280;3038;51.122;6.840;2023-04-06T01:53:07;101426.97;;;2.40;69.39
6020;BME280;3038;51.122;6.840;2023-04-06T01:55:33;101425.28;;;2.39;68.33
6020;BME280;3038;51.122;6.840;2023-04-06T01:57:58;101421.63;;;2.42;69.24
6020;BME280;3038;51.122;6.840;2023-04-06T02:00:24;101418.94;;;2.43;68.56
6020;BME280;3038;51.122;6.840;2023-04-06T02:02:49;101420.59;;;2.44;68.61
6020;BME280;3038;51.122;6.840;2023-04-06T02:05:15;101423.97;;;2.46;68.66
6020;BME280;3038;51.122;6.840;2023-04-06T02:07:43;101413.50;;;2.46;67.85
6020;BME280;3038;51.122;6.840;2023-04-06T02:10:15;101422.50;;;2.42;67.76
6020;BME280;3038;51.122;6.840;2023-04-06T02:12:41;101420.97;;;2.38;67.83
6020;BME280;3038;51.122;6.840;2023-04-06T02:15:07;101418.53;;;2.35;67.98
6020;BME280;3038;51.122;6.840;2023-04-06T02:17:32;101416.19;;;2.30;67.43
6020;BME280;3038;51.122;6.840;2023-04-06T02:20:00;101422.44;;;2.28;67.57
6020;BME280;3038;51.122;6.840;2023-04-06T02:22:25;101417.38;;;2.25;67.81
6020;BME280;3038;51.122;6.840;2023-04-06T02:24:50;101416.63;;;2.23;68.20
6020;BME280;3038;51.122;6.840;2023-04-06T02:27:16;101410.63;;;2.21;67.74
6020;BME280;3038;51.122;6.840;2023-04-06T02:29:41;101410.06;;;2.16;68.00
6020;BME280;3038;51.122;6.840;2023-04-06T02:32:07;101412.94;;;2.11;68.63
6020;BME280;3038;51.122;6.840;2023-04-06T02:34:35;101412.25;;;2.08;68.64
6020;BME280;3038;51.122;6.840;2023-04-06T02:37:00;101404.59;;;2.04;68.20
6020;BME280;3038;51.122;6.840;2023-04-06T02:39:25;101409.00;;;2.04;68.35
6020;BME280;3038;51.122;6.840;2023-04-06T02:41:53;101399.63;;;2.00;68.86
6020;BME280;3038;51.122;6.840;2023-04-06T02:44:18;101406.72;;;1.98;69.21
6020;BME280;3038;51.122;6.840;2023-04-06T02:46:44;101402.13;;;2.01;69.31
6020;BME280;3038;51.122;6.840;2023-04-06T02:49:11;101408.91;;;2.05;69.84
6020;BME280;3038;51.122;6.840;2023-04-06T02:51:37;101402.56;;;2.10;69.24
6020;BME280;3038;51.122;6.840;2023-04-06T02:54:02;101405.84;;;2.13;69.29
6020;BME280;3038;51.122;6.840;2023-04-06T02:56:27;101401.19;;;2.18;69.10
6020;BME280;3038;51.122;6.840;2023-04-06T02:58:53;101401.00;;;2.21;68.92
6020;BME280;3038;51.122;6.840;2023-04-06T03:01:18;101403.44;;;2.24;68.40
6020;BME280;3038;51.122;6.840;2023-04-06T03:03:43;101393.06;;;2.23;68.91
6020;BME280;3038;51.122;6.840;2023-04-06T03:06:09;101397.34;;;2.24;68.56
6020;BME280;3038;51.122;6.840;2023-04-06T03:08:35;101396.59;;;2.22;68.84
6020;BME280;3038;51.122;6.840;2023-04-06T03:11:00;101395.75;;;2.21;68.55
6020;BME280;3038;51.122;6.840;2023-04-06T03:13:26;101399.22;;;2.22;68.67
6020;BME280;3038;51.122;6.840;2023-04-06T03:15:51;101400.91;;;2.23;68.38
6020;BME280;3038;51.122;6.840;2023-04-06T03:18:22;101391.34;;;2.22;68.77
6020;BME280;3038;51.122;6.840;2023-04-06T03:20:48;101398.38;;;2.21;68.83
6020;BME280;3038;51.122;6.840;2023-04-06T03:23:13;101402.75;;;2.21;68.88
6020;BME280;3038;51.122;6.840;2023-04-06T03:25:41;101396.78;;;2.19;69.10
6020;BME280;3038;51.122;6.840;2023-04-06T03:28:06;101395.28;;;2.15;69.23
6020;BME280;3038;51.122;6.840;2023-04-06T03:30:32;101396.22;;;2.14;68.99
6020;BME280;3038;51.122;6.840;2023-04-06T03:32:57;101389.25;;;2.13;68.63
6020;BME280;3038;51.122;6.840;2023-04-06T03:35:22;101392.81;;;2.12;68.37
6020;BME280;3038;51.122;6.840;2023-04-06T03:37:48;101399.09;;;2.09;68.45
6020;BME280;3038;51.122;6.840;2023-04-06T03:40:13;101394.88;;;2.06;67.89
6020;BME280;3038;51.122;6.840;2023-04-06T03:42:39;101389.81;;;2.03;67.82
6020;BME280;3038;51.122;6.840;2023-04-06T03:45:04;101394.19;;;2.03;68.02
6020;BME280;3038;51.122;6.840;2023-04-06T03:47:30;101396.06;;;2.01;68.43
6020;BME280;3038;51.122;6.840;2023-04-06T03:49:55;101390.16;;;1.97;67.94
6020;BME280;3038;51.122;6.840;2023-04-06T03:52:21;101383.41;;;1.93;68.13
6020;BME280;3038;51.122;6.840;2023-04-06T03:54:48;101384.34;;;1.92;69.04
6020;BME280;3038;51.122;6.840;2023-04-06T03:57:16;101390.41;;;1.93;68.51
6020;BME280;3038;51.122;6.840;2023-04-06T03:59:41;101390.00;;;2.00;69.16
6020;BME280;3038;51.122;6.840;2023-04-06T04:02:06;101388.94;;;2.03;68.60
6020;BME280;3038;51.122;6.840;2023-04-06T04:04:32;101379.34;;;2.03;68.78
6020;BME280;3038;51.122;6.840;2023-04-06T04:06:59;101388.78;;;2.06;68.63
6020;BME280;3038;51.122;6.840;2023-04-06T04:09:25;101387.00;;;2.06;69.45
6020;BME280;3038;51.122;6.840;2023-04-06T04:11:50;101388.63;;;2.09;69.41
6020;BME280;3038;51.122;6.840;2023-04-06T04:14:16;101386.06;;;2.08;69.09
6020;BME280;3038;51.122;6.840;2023-04-06T04:16:41;101388.69;;;2.08;68.96
6020;BME280;3038;51.122;6.840;2023-04-06T04:19:07;101386.06;;;2.08;68.73
6020;BME280;3038;51.122;6.840;2023-04-06T04:21:32;101387.09;;;2.05;69.08
6020;BME280;3038;51.122;6.840;2023-04-06T04:23:58;101386.44;;;2.01;69.65
6020;BME280;3038;51.122;6.840;2023-04-06T04:26:23;101383.06;;;1.99;69.82
6020;BME280;3038;51.122;6.840;2023-04-06T04:28:48;101391.88;;;1.98;69.46
6020;BME280;3038;51.122;6.840;2023-04-06T04:31:14;101391.25;;;1.93;70.42
6020;BME280;3038;51.122;6.840;2023-04-06T04:33:39;101392.28;;;1.91;70.18
6020;BME280;3038;51.122;6.840;2023-04-06T04:36:05;101394.22;;;1.87;70.83
6020;BME280;3038;51.122;6.840;2023-04-06T04:38:30;101390.09;;;1.83;70.81
6020;BME280;3038;51.122;6.840;2023-04-06T04:40:56;101392.91;;;1.80;70.34
6020;BME280;3038;51.122;6.840;2023-04-06T04:43:21;101398.47;;;1.74;71.09
6020;BME280;3038;51.122;6.840;2023-04-06T04:45:46;101396.97;;;1.70;70.69
6020;BME280;3038;51.122;6.840;2023-04-06T04:48:12;101394.63;;;1.65;71.25
6020;BME280;3038;51.122;6.840;2023-04-06T04:50:37;101392.25;;;1.61;70.71
6020;BME280;3038;51.122;6.840;2023-04-06T04:53:03;101385.50;;;1.57;70.63
6020;BME280;3038;51.122;6.840;2023-04-06T04:55:31;101393.94;;;1.62;70.53
6020;BME280;3038;51.122;6.840;2023-04-06T04:57:57;101393.59;;;1.68;69.92
6020;BME280;3038;51.122;6.840;2023-04-06T05:00:22;101395.00;;;1.73;69.83
6020;BME280;3038;51.122;6.840;2023-04-06T05:02:48;101386.06;;;1.77;70.16
6020;BME280;3038;51.122;6.840;2023-04-06T05:05:13;101388.31;;;1.84;69.45
6020;BME280;3038;51.122;6.840;2023-04-06T05:07:38;101389.19;;;1.84;69.55
6020;BME280;3038;51.122;6.840;2023-04-06T05:10:05;101389.00;;;1.87;69.57
6020;BME280;3038;51.122;6.840;2023-04-06T05:12:30;101390.69;;;1.88;69.57
6020;BME280;3038;51.122;6.840;2023-04-06T05:14:56;101394.81;;;1.92;68.79
6020;BME280;3038;51.122;6.840;2023-04-06T05:17:21;101396.31;;;1.96;68.96
6020;BME280;3038;51.122;6.840;2023-04-06T05:19:46;101393.53;;;1.99;68.83
6020;BME280;3038;51.122;6.840;2023-04-06T05:22:12;101395.97;;;2.02;67.90
6020;BME280;3038;51.122;6.840;2023-04-06T05:24:39;101407.22;;;2.04;68.32
6020;BME280;3038;51.122;6.840;2023-04-06T05:27:05;101399.09;;;2.09;68.01
6020;BME280;3038;51.122;6.840;2023-04-06T05:29:30;101396.22;;;2.14;67.81
6020;BME280;3038;51.122;6.840;2023-04-06T05:31:56;101397.72;;;2.18;67.91
6020;BME280;3038;51.122;6.840;2023-04-06T05:34:21;101396.69;;;2.20;68.13
6020;BME280;3038;51.122;6.840;2023-04-06T05:36:49;101393.91;;;2.23;67.58
6020;BME280;3038;51.122;6.840;2023-04-06T05:39:14;101393.63;;;2.28;68.05
6020;BME280;3038;51.122;6.840;2023-04-06T05:41:40;101402.22;;;2.30;67.24
6020;BME280;3038;51.122;6.840;2023-04-06T05:44:06;101403.75;;;2.34;67.87
6020;BME280;3038;51.122;6.840;2023-04-06T05:46:31;101392.16;;;2.38;67.42
6020;BME280;3038;51.122;6.840;2023-04-06T05:48:56;101391.94;;;2.41;67.10
6020;BME280;3038;51.122;6.840;2023-04-06T05:51:22;101397.75;;;2.46;66.94
6020;BME280;3038;51.122;6.840;2023-04-06T05:53:47;101401.81;;;2.52;66.64
6020;BME280;3038;51.122;6.840;2023-04-06T05:56:15;101403.22;;;2.57;66.74
6020;BME280;3038;51.122;6.840;2023-04-06T05:58:40;101410.72;;;2.64;66.28
6020;BME280;3038;51.122;6.840;2023-04-06T06:01:06;101410.16;;;2.73;65.84
6020;BME280;3038;51.122;6.840;2023-04-06T06:03:31;101402.88;;;2.78;65.93
6020;BME280;3038;51.122;6.840;2023-04-06T06:06:03;101400.63;;;2.86;65.72
6020;BME280;3038;51.122;6.840;2023-04-06T06:08:29;101404.56;;;2.93;65.16
6020;BME280;3038;51.122;6.840;2023-04-06T06:10:55;101393.78;;;2.98;65.10
6020;BME280;3038;51.122;6.840;2023-04-06T06:13:22;101392.56;;;3.03;65.13
6020;BME280;3038;51.122;6.840;2023-04-06T06:15:50;101395.56;;;3.12;64.76
6020;BME280;3038;51.122;6.840;2023-04-06T06:18:15;101385.50;;;3.18;64.90
6020;BME280;3038;51.122;6.840;2023-04-06T06:20:41;101386.00;;;3.25;64.52
6020;BME280;3038;51.122;6.840;2023-04-06T06:23:06;101390.75;;;3.32;64.04
6020;BME280;3038;51.122;6.840;2023-04-06T06:25:32;101383.13;;;3.42;64.21
6020;BME280;3038;51.122;6.840;2023-04-06T06:27:58;101388.84;;;3.49;63.87
6020;BME280;3038;51.122;6.840;2023-04-06T06:30:24;101389.28;;;3.55;62.72
6020;BME280;3038;51.122;6.840;2023-04-06T06:32:50;101387.88;;;3.64;63.19
6020;BME280;3038;51.122;6.840;2023-04-06T06:35:15;101395.22;;;3.72;63.09
6020;BME280;3038;51.122;6.840;2023-04-06T06:37:43;101387.53;;;3.83;62.72
6020;BME280;3038;51.122;6.840;2023-04-06T06:40:11;101395.34;;;3.97;62.29
6020;BME280;3038;51.122;6.840;2023-04-06T06:42:38;101397.91;;;4.11;62.71
6020;BME280;3038;51.122;6.840;2023-04-06T06:45:05;101394.34;;;4.25;61.98
6020;BME280;3038;51.122;6.840;2023-04-06T06:47:30;101393.09;;;4.44;61.60
6020;BME280;3038;51.122;6.840;2023-04-06T06:49:56;101391.22;;;4.58;60.63
6020;BME280;3038;51.122;6.840;2023-04-06T06:52:21;101392.06;;;4.72;61.11
6020;BME280;3038;51.122;6.840;2023-04-06T06:54:49;101383.88;;;4.89;61.01
6020;BME280;3038;51.122;6.840;2023-04-06T06:57:14;101382.47;;;5.09;60.23
6020;BME280;3038;51.122;6.840;2023-04-06T06:59:39;101394.28;;;5.40;60.66
6020;BME280;3038;51.122;6.840;2023-04-06T07:02:05;101380.50;;;5.60;58.59
6020;BME280;3038;51.122;6.840;2023-04-06T07:04:30;101384.22;;;5.82;58.24
6020;BME280;3038;51.122;6.840;2023-04-06T07:06:56;101374.03;;;6.01;57.94
6020;BME280;3038;51.122;6.840;2023-04-06T07:09:21;101376.38;;;6.28;58.50
6020;BME280;3038;51.122;6.840;2023-04-06T07:11:47;101373.69;;;6.52;56.36
6020;BME280;3038;51.122;6.840;2023-04-06T07:14:15;101377.81;;;6.67;56.01
6020;BME280;3038;51.122;6.840;2023-04-06T07:16:40;101368.69;;;6.94;55.26
6020;BME280;3038;51.122;6.840;2023-04-06T07:19:08;101363.53;;;7.04;54.46
6020;BME280;3038;51.122;6.840;2023-04-06T07:21:34;101363.88;;;7.10;53.87
6020;BME280;3038;51.122;6.840;2023-04-06T07:24:00;101372.50;;;7.24;53.31
6020;BME280;3038;51.122;6.840;2023-04-06T07:26:29;101364.06;;;7.30;53.24
6020;BME280;3038;51.122;6.840;2023-04-06T07:28:54;101370.56;;;7.37;52.80
6020;BME280;3038;51.122;6.840;2023-04-06T07:31:20;101366.22;;;7.47;53.18
6020;BME280;3038;51.122;6.840;2023-04-06T07:33:45;101367.16;;;7.57;52.67
6020;BME280;3038;51.122;6.840;2023-04-06T07:36:14;101371.22;;;7.61;52.03
6020;BME280;3038;51.122;6.840;2023-04-06T07:38:40;101369.03;;;7.66;52.20
6020;BME280;3038;51.122;6.840;2023-04-06T07:41:05;101362.78;;;7.79;51.58
6020;BME280;3038;51.122;6.840;2023-04-06T07:43:31;101364.63;;;7.88;51.81
6020;BME280;3038;51.122;6.840;2023-04-06T07:45:56;101359.16;;;7.80;51.34
6020;BME280;3038;51.122;6.840;2023-04-06T07:48:23;101367.09;;;7.80;51.19
6020;BME280;3038;51.122;6.840;2023-04-06T07:50:48;101360.31;;;7.87;51.38
6020;BME280;3038;51.122;6.840;2023-04-06T07:53:14;101362.41;;;8.04;51.96
6020;BME280;3038;51.122;6.840;2023-04-06T07:55:39;101358.78;;;8.05;50.80
6020;BME280;3038;51.122;6.840;2023-04-06T07:58:07;101366.56;;;8.18;50.84
6020;BME280;3038;51.122;6.840;2023-04-06T08:00:33;101355.75;;;8.31;50.51
6020;BME280;3038;51.122;6.840;2023-04-06T08:02:58;101351.06;;;8.34;49.79
6020;BME280;3038;51.122;6.840;2023-04-06T08:05:23;101351.16;;;8.44;49.70
6020;BME280;3038;51.122;6.840;2023-04-06T08:07:51;101355.53;;;8.55;49.16
6020;BME280;3038;51.122;6.840;2023-04-06T08:10:17;101353.94;;;8.73;49.86
6020;BME280;3038;51.122;6.840;2023-04-06T08:12:42;101355.25;;;8.88;49.06
6020;BME280;3038;51.122;6.840;2023-04-06T08:15:08;101353.59;;;8.87;48.96
6020;BME280;3038;51.122;6.840;2023-04-06T08:17:33;101357.09;;;8.88;49.02
6020;BME280;3038;51.122;6.840;2023-04-06T08:19:59;101359.81;;;9.07;48.88
6020;BME280;3038;51.122;6.840;2023-04-06T08:22:25;101354.38;;;9.18;48.81
6020;BME280;3038;51.122;6.840;2023-04-06T08:24:51;101362.66;;;9.25;47.70
6020;BME280;3038;51.122;6.840;2023-04-06T08:27:16;101357.09;;;9.38;47.47
6020;BME280;3038;51.122;6.840;2023-04-06T08:29:41;101354.59;;;9.46;48.17
6020;BME280;3038;51.122;6.840;2023-04-06T08:32:09;101353.78;;;9.65;47.21
6020;BME280;3038;51.122;6.840;2023-04-06T08:34:35;101346.81;;;9.73;47.17
6020;BME280;3038;51.122;6.840;2023-04-06T08:37:01;101349.31;;;9.75;46.76
6020;BME280;3038;51.122;6.840;2023-04-06T08:39:27;101344.84;;;9.95;46.81
6020;BME280;3038;51.122;6.840;2023-04-06T08:41:55;101338.31;;;9.99;46.60
6020;BME280;3038;51.122;6.840;2023-04-06T08:44:25;101340.78;;;10.10;46.29
6020;BME280;3038;51.122;6.840;2023-04-06T08:46:51;101330.47;;;10.26;46.22
6020;BME280;3038;51.122;6.840;2023-04-06T08:49:18;101340.00;;;10.66;45.95
6020;BME280;3038;51.122;6.840;2023-04-06T08:51:44;101331.25;;;10.93;44.62
6020;BME280;3038;51.122;6.840;2023-04-06T08:54:09;101337.28;;;11.13;44.29
6020;BME280;3038;51.122;6.840;2023-04-06T08:56:38;101335.81;;;11.28;43.81
6020;BME280;3038;51.122;6.840;2023-04-06T08:59:04;101332.69;;;11.33;43.30
6020;BME280;3038;51.122;6.840;2023-04-06T09:01:34;101333.88;;;11.66;43.28
6020;BME280;3038;51.122;6.840;2023-04-06T09:04:03;101336.41;;;11.86;43.19
6020;BME280;3038;51.122;6.840;2023-04-06T09:06:34;101334.72;;;12.02;42.77
6020;BME280;3038;51.122;6.840;2023-04-06T09:09:00;101324.41;;;12.25;42.24
6020;BME280;3038;51.122;6.840;2023-04-06T09:11:25;101326.91;;;12.53;42.46
6020;BME280;3038;51.122;6.840;2023-04-06T09:13:53;101326.03;;;12.78;41.28
6020;BME280;3038;51.122;6.840;2023-04-06T09:16:19;101329.78;;;12.94;41.86
6020;BME280;3038;51.122;6.840;2023-04-06T09:18:45;101326.97;;;13.46;41.44
6020;BME280;3038;51.122;6.840;2023-04-06T09:21:11;101327.81;;;13.62;39.92
6020;BME280;3038;51.122;6.840;2023-04-06T09:23:39;101325.34;;;13.69;39.56
6020;BME280;3038;51.122;6.840;2023-04-06T09:26:16;101328.50;;;13.65;38.88
6020;BME280;3038;51.122;6.840;2023-04-06T09:28:46;101330.31;;;13.56;39.99
6020;BME280;3038;51.122;6.840;2023-04-06T09:31:25;101319.50;;;13.49;38.56
6020;BME280;3038;51.122;6.840;2023-04-06T09:33:52;101317.66;;;13.58;39.09
6020;BME280;3038;51.122;6.840;2023-04-06T09:36:18;101309.34;;;13.85;39.59
6020;BME280;3038;51.122;6.840;2023-04-06T09:41:30;101307.00;;;13.99;38.32
6020;BME280;3038;51.122;6.840;2023-04-06T09:44:04;101302.13;;;14.27;37.95
6020;BME280;3038;51.122;6.840;2023-04-06T09:46:35;101309.66;;;14.31;38.06
6020;BME280;3038;51.122;6.840;2023-04-06T09:49:05;101297.97;;;14.24;37.58
6020;BME280;3038;51.122;6.840;2023-04-06T09:54:01;101305.75;;;14.58;36.92
6020;BME280;3038;51.122;6.840;2023-04-06T09:56:31;101297.56;;;14.60;37.25
6020;BME280;3038;51.122;6.840;2023-04-06T09:59:09;101306.38;;;14.69;36.03
6020;BME280;3038;51.122;6.840;2023-04-06T10:01:40;101293.84;;;14.69;37.45
6020;BME280;3038;51.122;6.840;2023-04-06T10:04:13;101298.16;;;14.86;37.50
6020;BME280;3038;51.122;6.840;2023-04-06T10:06:46;101300.97;;;15.24;36.95
6020;BME280;3038;51.122;6.840;2023-04-06T10:09:17;101304.22;;;15.42;36.62
6020;BME280;3038;51.122;6.840;2023-04-06T10:11:43;101300.97;;;15.47;35.76
6020;BME280;3038;51.122;6.840;2023-04-06T10:14:09;101303.72;;;15.39;35.98
6020;BME280;3038;51.122;6.840;2023-04-06T10:16:34;101310.97;;;15.30;36.57
6020;BME280;3038;51.122;6.840;2023-04-06T10:19:06;101316.00;;;15.25;35.86
6020;BME280;3038;51.122;6.840;2023-04-06T10:21:35;101306.16;;;15.17;36.59
6020;BME280;3038;51.122;6.840;2023-04-06T10:24:09;101303.28;;;15.27;36.40
6020;BME280;3038;51.122;6.840;2023-04-06T10:26:39;101296.38;;;15.64;37.04
6020;BME280;3038;51.122;6.840;2023-04-06T10:29:05;101303.50;;;15.94;36.21
6020;BME280;3038;51.122;6.840;2023-04-06T10:31:31;101305.19;;;15.96;36.31
6020;BME280;3038;51.122;6.840;2023-04-06T10:34:01;101297.41;;;15.86;36.25
6020;BME280;3038;51.122;6.840;2023-04-06T10:36:28;101296.50;;;16.08;35.62
6020;BME280;3038;51.122;6.840;2023-04-06T10:38:58;101293.22;;;16.51;35.94
6020;BME280;3038;51.122;6.840;2023-04-06T10:41:32;101292.84;;;17.34;34.24
6020;BME280;3038;51.122;6.840;2023-04-06T10:43:59;101283.69;;;18.14;33.41
6020;BME280;3038;51.122;6.840;2023-04-06T10:46:26;101280.81;;;18.50;32.33
6020;BME280;3038;51.122;6.840;2023-04-06T10:48:51;101272.84;;;18.29;33.19
6020;BME280;3038;51.122;6.840;2023-04-06T10:51:18;101279.84;;;18.23;32.66
6020;BME280;3038;51.122;6.840;2023-04-06T10:53:48;101274.41;;;18.52;31.79
6020;BME280;3038;51.122;6.840;2023-04-06T10:56:17;101274.97;;;18.40;32.10
6020;BME280;3038;51.122;6.840;2023-04-06T10:58:48;101276.16;;;18.31;31.13
6020;BME280;3038;51.122;6.840;2023-04-06T11:01:18;101279.50;;;18.40;31.82
6020;BME280;3038;51.122;6.840;2023-04-06T11:03:48;101278.50;;;18.13;31.20
6020;BME280;3038;51.122;6.840;2023-04-06T11:08:50;101277.63;;;16.54;33.73
6020;BME280;3038;51.122;6.840;2023-04-06T11:11:18;101278.06;;;16.28;35.46
6020;BME280;3038;51.122;6.840;2023-04-06T11:13:58;101274.34;;;16.29;34.90
6020;BME280;3038;51.122;6.840;2023-04-06T11:16:29;101285.56;;;16.48;35.32
6020;BME280;3038;51.122;6.840;2023-04-06T11:21:43;101288.50;;;15.85;35.04
6020;BME280;3038;51.122;6.840;2023-04-06T11:24:19;101287.06;;;15.52;36.47
6020;BME280;3038;51.122;6.840;2023-04-06T11:26:50;101277.66;;;15.64;37.52
6020;BME280;3038;51.122;6.840;2023-04-06T11:31:50;101277.94;;;15.69;36.98
6020;BME280;3038;51.122;6.840;2023-04-06T11:34:20;101276.88;;;15.78;36.96
6020;BME280;3038;51.122;6.840;2023-04-06T11:36:47;101274.59;;;15.44;37.56
6020;BME280;3038;51.122;6.840;2023-04-06T11:39:29;101275.03;;;15.25;38.44
6020;BME280;3038;51.122;6.840;2023-04-06T11:41:57;101274.69;;;14.97;39.50
6020;BME280;3038;51.122;6.840;2023-04-06T11:44:32;101272.13;;;14.80;39.26
6020;BME280;3038;51.122;6.840;2023-04-06T11:46:59;101267.06;;;14.85;39.00
6020;BME280;3038;51.122;6.840;2023-04-06T11:49:28;101267.44;;;14.74;40.22
6020;BME280;3038;51.122;6.840;2023-04-06T11:51:55;101266.03;;;15.17;39.97
6020;BME280;3038;51.122;6.840;2023-04-06T11:54:36;101253.66;;;15.48;38.37
6020;BME280;3038;51.122;6.840;2023-04-06T11:57:05;101257.09;;;15.79;37.33
6020;BME280;3038;51.122;6.840;2023-04-06T11:59:32;101259.97;;;15.78;37.88
6020;BME280;3038;51.122;6.840;2023-04-06T12:01:57;101258.47;;;15.75;37.97
6020;BME280;3038;51.122;6.840;2023-04-06T12:04:23;101256.38;;;15.62;37.52
6020;BME280;3038;51.122;6.840;2023-04-06T12:06:49;101253.41;;;15.57;38.29
6020;BME280;3038;51.122;6.840;2023-04-06T12:09:16;101259.66;;;15.50;37.71
6020;BME280;3038;51.122;6.840;2023-04-06T12:11:42;101261.09;;;15.83;38.14
6020;BME280;3038;51.122;6.840;2023-04-06T12:14:08;101252.34;;;16.19;37.51
6020;BME280;3038;51.122;6.840;2023-04-06T12:16:34;101253.41;;;15.80;37.22
6020;BME280;3038;51.122;6.840;2023-04-06T12:19:00;101249.81;;;15.42;37.80
6020;BME280;3038;51.122;6.840;2023-04-06T12:21:30;101256.03;;;15.42;38.39
6020;BME280;3038;51.122;6.840;2023-04-06T12:23:57;101247.00;;;15.43;38.59
6020;BME280;3038;51.122;6.840;2023-04-06T12:26:24;101251.34;;;15.45;39.32
6020;BME280;3038;51.122;6.840;2023-04-06T12:28:52;101254.34;;;15.41;39.47
6020;BME280;3038;51.122;6.840;2023-04-06T12:31:19;101255.38;;;15.40;40.07
6020;BME280;3038;51.122;6.840;2023-04-06T12:33:49;101249.75;;;15.81;38.37
6020;BME280;3038;51.122;6.840;2023-04-06T12:36:16;101245.31;;;15.88;38.36
6020;BME280;3038;51.122;6.840;2023-04-06T12:38:47;101245.69;;;15.62;38.25
6020;BME280;3038;51.122;6.840;2023-04-06T12:41:13;101251.97;;;15.47;39.27
6020;BME280;3038;51.122;6.840;2023-04-06T12:43:42;101257.88;;;15.19;38.70
6020;BME280;3038;51.122;6.840;2023-04-06T12:46:07;101260.72;;;14.86;40.14
6020;BME280;3038;51.122;6.840;2023-04-06T12:48:33;101256.09;;;14.72;40.71
6020;BME280;3038;51.122;6.840;2023-04-06T12:51:00;101253.75;;;14.69;40.88
6020;BME280;3038;51.122;6.840;2023-04-06T12:53:26;101259.41;;;14.74;39.59
6020;BME280;3038;51.122;6.840;2023-04-06T12:55:56;101257.75;;;14.73;41.64
6020;BME280;3038;51.122;6.840;2023-04-06T12:58:24;101251.97;;;14.61;40.72
6020;BME280;3038;51.122;6.840;2023-04-06T13:00:52;101259.72;;;14.79;40.91
6020;BME280;3038;51.122;6.840;2023-04-06T13:03:18;101253.59;;;15.02;41.45
6020;BME280;3038;51.122;6.840;2023-04-06T13:05:47;101247.63;;;15.00;40.41
6020;BME280;3038;51.122;6.840;2023-04-06T13:08:14;101254.84;;;14.91;40.41
6020;BME280;3038;51.122;6.840;2023-04-06T13:10:47;101253.00;;;14.91;41.15
6020;BME280;3038;51.122;6.840;2023-04-06T13:13:14;101245.13;;;14.59;40.82
6020;BME280;3038;51.122;6.840;2023-04-06T13:15:39;101249.19;;;14.30;40.83
6020;BME280;3038;51.122;6.840;2023-04-06T13:18:05;101245.53;;;14.31;41.12
6020;BME280;3038;51.122;6.840;2023-04-06T13:20:30;101248.53;;;14.28;42.22
6020;BME280;3038;51.122;6.840;2023-04-06T13:22:59;101247.84;;;14.26;43.61
6020;BME280;3038;51.122;6.840;2023-04-06T13:25:24;101252.56;;;14.16;43.61
6020;BME280;3038;51.122;6.840;2023-04-06T13:27:49;101247.25;;;14.00;44.81